sensor_id;sensor_type;location;lat;lon;timestamp;temperature;humidity
18177;DHT22;9213;50.858;3.964;2022-12-07T00:01:25;9.40;61.90
18177;DHT22;9213;50.858;3.964;2022-12-07T00:03:54;9.40;61.90
18177;DHT22;9213;50.858;3.964;2022-12-07T00:06:22;9.40;62.00
18177;DHT22;9213;50.858;3.964;2022-12-07T00:08:51;9.40;62.00
18177;DHT22;9213;50.858;3.964;2022-12-07T00:11:19;9.40;62.10
18177;DHT22;9213;50.858;3.964;2022-12-07T00:13:47;9.40;62.10
18177;DHT22;9213;50.858;3.964;2022-12-07T00:16:15;9.30;62.10
18177;DHT22;9213;50.858;3.964;2022-12-07T00:18:43;9.30;62.00
18177;DHT22;9213;50.858;3.964;2022-12-07T00:21:11;9.30;62.00
18177;DHT22;9213;50.858;3.964;2022-12-07T00:23:39;9.30;62.00
18177;DHT22;9213;50.858;3.964;2022-12-07T00:26:10;9.30;62.00
18177;DHT22;9213;50.858;3.964;2022-12-07T00:28:38;9.30;62.90
18177;DHT22;9213;50.858;3.964;2022-12-07T00:31:07;9.30;62.10
18177;DHT22;9213;50.858;3.964;2022-12-07T00:33:34;9.30;62.10
18177;DHT22;9213;50.858;3.964;2022-12-07T00:36:03;9.20;61.90
18177;DHT22;9213;50.858;3.964;2022-12-07T00:38:31;9.20;61.90
18177;DHT22;9213;50.858;3.964;2022-12-07T00:41:00;9.20;61.90
18177;DHT22;9213;50.858;3.964;2022-12-07T00:43:28;9.20;61.90
18177;DHT22;9213;50.858;3.964;2022-12-07T00:45:56;9.20;61.80
18177;DHT22;9213;50.858;3.964;2022-12-07T00:48:23;9.20;61.80
18177;DHT22;9213;50.858;3.964;2022-12-07T00:50:50;9.10;61.80
18177;DHT22;9213;50.858;3.964;2022-12-07T00:53:18;9.10;61.80
18177;DHT22;9213;50.858;3.964;2022-12-07T00:55:45;9.10;61.80
18177;DHT22;9213;50.858;3.964;2022-12-07T00:58:12;9.10;61.80
18177;DHT22;9213;50.858;3.964;2022-12-07T01:00:42;9.00;61.70
18177;DHT22;9213;50.858;3.964;2022-12-07T01:03:11;9.00;61.80
18177;DHT22;9213;50.858;3.964;2022-12-07T01:05:39;8.90;61.70
18177;DHT22;9213;50.858;3.964;2022-12-07T01:08:06;8.90;61.70
18177;DHT22;9213;50.858;3.964;2022-12-07T01:10:33;8.80;61.70
18177;DHT22;9213;50.858;3.964;2022-12-07T01:13:00;8.80;61.70
18177;DHT22;9213;50.858;3.964;2022-12-07T01:15:27;8.80;61.80
18177;DHT22;9213;50.858;3.964;2022-12-07T01:17:55;8.70;62.00
18177;DHT22;9213;50.858;3.964;2022-12-07T01:20:22;8.70;62.20
18177;DHT22;9213;50.858;3.964;2022-12-07T01:22:49;8.70;62.20
18177;DHT22;9213;50.858;3.964;2022-12-07T01:25:16;8.70;62.30
18177;DHT22;9213;50.858;3.964;2022-12-07T01:27:43;8.70;62.30
18177;DHT22;9213;50.858;3.964;2022-12-07T01:30:11;8.80;62.30
18177;DHT22;9213;50.858;3.964;2022-12-07T01:32:38;8.80;62.30
18177;DHT22;9213;50.858;3.964;2022-12-07T01:35:07;8.80;62.30
18177;DHT22;9213;50.858;3.964;2022-12-07T01:37:35;8.80;62.30
18177;DHT22;9213;50.858;3.964;2022-12-07T01:40:03;8.80;62.30
18177;DHT22;9213;50.858;3.964;2022-12-07T01:42:31;8.80;62.30
18177;DHT22;9213;50.858;3.964;2022-12-07T01:45:31;8.80;62.20
18177;DHT22;9213;50.858;3.964;2022-12-07T01:48:04;8.80;62.40
18177;DHT22;9213;50.858;3.964;2022-12-07T01:50:34;8.70;62.20
18177;DHT22;9213;50.858;3.964;2022-12-07T01:53:05;8.70;62.40
18177;DHT22;9213;50.858;3.964;2022-12-07T01:55:34;8.60;62.50
18177;DHT22;9213;50.858;3.964;2022-12-07T01:58:02;8.60;62.60
18177;DHT22;9213;50.858;3.964;2022-12-07T02:00:30;8.60;62.60
18177;DHT22;9213;50.858;3.964;2022-12-07T02:03:01;8.70;62.70
18177;DHT22;9213;50.858;3.964;2022-12-07T02:05:31;8.70;62.70
18177;DHT22;9213;50.858;3.964;2022-12-07T02:08:00;8.70;62.60
18177;DHT22;9213;50.858;3.964;2022-12-07T02:10:29;8.70;62.50
18177;DHT22;9213;50.858;3.964;2022-12-07T02:12:58;8.70;62.60
18177;DHT22;9213;50.858;3.964;2022-12-07T02:15:36;8.60;62.50
18177;DHT22;9213;50.858;3.964;2022-12-07T02:18:09;8.60;62.60
18177;DHT22;9213;50.858;3.964;2022-12-07T02:20:44;8.60;62.50
18177;DHT22;9213;50.858;3.964;2022-12-07T02:23:41;8.50;62.60
18177;DHT22;9213;50.858;3.964;2022-12-07T02:26:41;8.60;62.90
18177;DHT22;9213;50.858;3.964;2022-12-07T02:29:17;8.60;63.10
18177;DHT22;9213;50.858;3.964;2022-12-07T02:31:55;8.60;63.00
18177;DHT22;9213;50.858;3.964;2022-12-07T02:34:32;8.60;63.10
18177;DHT22;9213;50.858;3.964;2022-12-07T02:37:05;8.70;63.10
18177;DHT22;9213;50.858;3.964;2022-12-07T02:39:41;8.70;62.90
18177;DHT22;9213;50.858;3.964;2022-12-07T02:42:15;8.60;62.70
18177;DHT22;9213;50.858;3.964;2022-12-07T02:44:46;8.60;62.60
18177;DHT22;9213;50.858;3.964;2022-12-07T02:47:16;8.60;62.60
18177;DHT22;9213;50.858;3.964;2022-12-07T02:49:44;8.50;62.60
18177;DHT22;9213;50.858;3.964;2022-12-07T02:52:11;8.50;62.60
18177;DHT22;9213;50.858;3.964;2022-12-07T02:54:38;8.40;62.50
18177;DHT22;9213;50.858;3.964;2022-12-07T02:57:15;8.40;62.50
18177;DHT22;9213;50.858;3.964;2022-12-07T02:59:57;8.40;62.50
18177;DHT22;9213;50.858;3.964;2022-12-07T03:02:31;8.30;62.40
18177;DHT22;9213;50.858;3.964;2022-12-07T03:05:13;8.30;62.40
18177;DHT22;9213;50.858;3.964;2022-12-07T03:07:48;8.30;62.60
18177;DHT22;9213;50.858;3.964;2022-12-07T03:10:24;8.20;62.50
18177;DHT22;9213;50.858;3.964;2022-12-07T03:13:02;8.20;62.70
18177;DHT22;9213;50.858;3.964;2022-12-07T03:15:34;8.20;62.70
18177;DHT22;9213;50.858;3.964;2022-12-07T03:18:03;8.20;62.80
18177;DHT22;9213;50.858;3.964;2022-12-07T03:20:32;8.20;62.80
18177;DHT22;9213;50.858;3.964;2022-12-07T03:23:00;8.10;63.60
18177;DHT22;9213;50.858;3.964;2022-12-07T03:25:29;8.10;62.80
18177;DHT22;9213;50.858;3.964;2022-12-07T03:27:58;8.10;62.90
18177;DHT22;9213;50.858;3.964;2022-12-07T03:30:31;8.10;62.90
18177;DHT22;9213;50.858;3.964;2022-12-07T03:33:03;8.10;62.90
18177;DHT22;9213;50.858;3.964;2022-12-07T03:35:35;8.10;62.80
18177;DHT22;9213;50.858;3.964;2022-12-07T03:38:11;8.00;62.70
18177;DHT22;9213;50.858;3.964;2022-12-07T03:40:44;8.00;62.80
18177;DHT22;9213;50.858;3.964;2022-12-07T03:43:16;8.00;62.90
18177;DHT22;9213;50.858;3.964;2022-12-07T03:45:51;8.00;62.90
18177;DHT22;9213;50.858;3.964;2022-12-07T03:48:28;8.00;63.10
18177;DHT22;9213;50.858;3.964;2022-12-07T03:51:02;8.00;63.10
18177;DHT22;9213;50.858;3.964;2022-12-07T03:53:36;8.00;63.20
18177;DHT22;9213;50.858;3.964;2022-12-07T03:56:05;8.00;63.30
18177;DHT22;9213;50.858;3.964;2022-12-07T03:58:33;8.00;63.30
18177;DHT22;9213;50.858;3.964;2022-12-07T04:01:02;8.10;63.50
18177;DHT22;9213;50.858;3.964;2022-12-07T04:03:29;8.10;63.50
18177;DHT22;9213;50.858;3.964;2022-12-07T04:05:56;8.10;63.50
18177;DHT22;9213;50.858;3.964;2022-12-07T04:08:24;8.10;63.60
18177;DHT22;9213;50.858;3.964;2022-12-07T04:10:51;8.20;63.50
18177;DHT22;9213;50.858;3.964;2022-12-07T04:13:18;8.10;63.50
18177;DHT22;9213;50.858;3.964;2022-12-07T04:15:45;8.10;63.40
18177;DHT22;9213;50.858;3.964;2022-12-07T04:18:13;8.10;63.40
18177;DHT22;9213;50.858;3.964;2022-12-07T04:20:40;8.10;63.30
18177;DHT22;9213;50.858;3.964;2022-12-07T04:23:07;8.00;63.20
18177;DHT22;9213;50.858;3.964;2022-12-07T04:25:34;8.00;63.30
18177;DHT22;9213;50.858;3.964;2022-12-07T04:28:01;8.10;63.40
18177;DHT22;9213;50.858;3.964;2022-12-07T04:30:28;8.00;63.30
18177;DHT22;9213;50.858;3.964;2022-12-07T04:32:55;8.10;63.40
18177;DHT22;9213;50.858;3.964;2022-12-07T04:35:23;8.10;63.20
18177;DHT22;9213;50.858;3.964;2022-12-07T04:37:50;8.00;63.00
18177;DHT22;9213;50.858;3.964;2022-12-07T04:40:17;8.00;62.90
18177;DHT22;9213;50.858;3.964;2022-12-07T04:42:44;7.90;62.90
18177;DHT22;9213;50.858;3.964;2022-12-07T04:45:11;7.90;63.70
18177;DHT22;9213;50.858;3.964;2022-12-07T04:47:37;7.90;62.90
18177;DHT22;9213;50.858;3.964;2022-12-07T04:50:05;7.80;62.70
18177;DHT22;9213;50.858;3.964;2022-12-07T04:52:34;7.80;62.70
18177;DHT22;9213;50.858;3.964;2022-12-07T04:55:01;7.70;62.60
18177;DHT22;9213;50.858;3.964;2022-12-07T04:57:27;7.70;62.60
18177;DHT22;9213;50.858;3.964;2022-12-07T04:59:54;7.70;62.60
18177;DHT22;9213;50.858;3.964;2022-12-07T05:02:21;7.60;62.60
18177;DHT22;9213;50.858;3.964;2022-12-07T05:04:48;7.60;62.70
18177;DHT22;9213;50.858;3.964;2022-12-07T05:07:15;7.50;62.70
18177;DHT22;9213;50.858;3.964;2022-12-07T05:09:43;7.50;62.80
18177;DHT22;9213;50.858;3.964;2022-12-07T05:12:10;7.50;62.80
18177;DHT22;9213;50.858;3.964;2022-12-07T05:14:37;7.50;62.80
18177;DHT22;9213;50.858;3.964;2022-12-07T05:17:04;7.40;62.70
18177;DHT22;9213;50.858;3.964;2022-12-07T05:19:30;7.40;62.80
18177;DHT22;9213;50.858;3.964;2022-12-07T05:21:57;7.40;62.80
18177;DHT22;9213;50.858;3.964;2022-12-07T05:24:24;7.40;62.90
18177;DHT22;9213;50.858;3.964;2022-12-07T05:26:52;7.40;63.90
18177;DHT22;9213;50.858;3.964;2022-12-07T05:29:19;7.40;63.20
18177;DHT22;9213;50.858;3.964;2022-12-07T05:31:46;7.40;63.30
18177;DHT22;9213;50.858;3.964;2022-12-07T05:34:13;7.40;63.40
18177;DHT22;9213;50.858;3.964;2022-12-07T05:36:40;7.40;63.50
18177;DHT22;9213;50.858;3.964;2022-12-07T05:39:08;7.50;63.60
18177;DHT22;9213;50.858;3.964;2022-12-07T05:41:35;7.60;63.70
18177;DHT22;9213;50.858;3.964;2022-12-07T05:44:20;7.60;63.70
18177;DHT22;9213;50.858;3.964;2022-12-07T05:46:47;7.70;63.60
18177;DHT22;9213;50.858;3.964;2022-12-07T05:49:14;7.70;63.70
18177;DHT22;9213;50.858;3.964;2022-12-07T05:51:41;7.80;63.70
18177;DHT22;9213;50.858;3.964;2022-12-07T05:54:08;7.80;63.70
18177;DHT22;9213;50.858;3.964;2022-12-07T05:56:35;7.90;63.80
18177;DHT22;9213;50.858;3.964;2022-12-07T05:59:02;8.00;63.70
18177;DHT22;9213;50.858;3.964;2022-12-07T06:01:48;8.00;63.70
18177;DHT22;9213;50.858;3.964;2022-12-07T06:04:15;8.10;63.60
18177;DHT22;9213;50.858;3.964;2022-12-07T06:06:42;8.10;63.70
18177;DHT22;9213;50.858;3.964;2022-12-07T06:09:09;8.20;63.70
18177;DHT22;9213;50.858;3.964;2022-12-07T06:11:37;8.20;63.80
18177;DHT22;9213;50.858;3.964;2022-12-07T06:14:21;8.20;63.80
18177;DHT22;9213;50.858;3.964;2022-12-07T06:16:49;8.20;63.70
18177;DHT22;9213;50.858;3.964;2022-12-07T06:19:16;8.20;63.70
18177;DHT22;9213;50.858;3.964;2022-12-07T06:21:43;8.20;63.70
18177;DHT22;9213;50.858;3.964;2022-12-07T06:24:11;8.30;63.70
18177;DHT22;9213;50.858;3.964;2022-12-07T06:26:38;8.30;63.70
18177;DHT22;9213;50.858;3.964;2022-12-07T06:29:05;8.30;63.60
18177;DHT22;9213;50.858;3.964;2022-12-07T06:31:32;8.20;63.50
18177;DHT22;9213;50.858;3.964;2022-12-07T06:34:01;8.20;63.50
18177;DHT22;9213;50.858;3.964;2022-12-07T06:36:28;8.10;63.50
18177;DHT22;9213;50.858;3.964;2022-12-07T06:38:55;8.10;63.40
18177;DHT22;9213;50.858;3.964;2022-12-07T06:41:22;8.00;63.40
18177;DHT22;9213;50.858;3.964;2022-12-07T06:43:50;8.00;63.40
18177;DHT22;9213;50.858;3.964;2022-12-07T06:46:17;7.90;63.50
18177;DHT22;9213;50.858;3.964;2022-12-07T06:48:44;7.80;63.50
18177;DHT22;9213;50.858;3.964;2022-12-07T06:51:12;7.80;63.50
18177;DHT22;9213;50.858;3.964;2022-12-07T06:53:39;7.80;63.60
18177;DHT22;9213;50.858;3.964;2022-12-07T06:56:07;7.70;63.60
18177;DHT22;9213;50.858;3.964;2022-12-07T06:58:33;7.70;63.70
18177;DHT22;9213;50.858;3.964;2022-12-07T07:01:00;7.70;63.80
18177;DHT22;9213;50.858;3.964;2022-12-07T07:03:28;7.80;63.90
18177;DHT22;9213;50.858;3.964;2022-12-07T07:05:55;7.80;63.90
18177;DHT22;9213;50.858;3.964;2022-12-07T07:08:23;7.90;64.00
18177;DHT22;9213;50.858;3.964;2022-12-07T07:10:50;7.90;64.00
18177;DHT22;9213;50.858;3.964;2022-12-07T07:13:17;8.00;64.00
18177;DHT22;9213;50.858;3.964;2022-12-07T07:15:44;8.00;64.00
18177;DHT22;9213;50.858;3.964;2022-12-07T07:18:11;8.00;63.90
18177;DHT22;9213;50.858;3.964;2022-12-07T07:20:38;8.10;64.10
18177;DHT22;9213;50.858;3.964;2022-12-07T07:23:06;8.20;64.10
18177;DHT22;9213;50.858;3.964;2022-12-07T07:25:34;8.20;64.00
18177;DHT22;9213;50.858;3.964;2022-12-07T07:28:01;8.20;64.00
18177;DHT22;9213;50.858;3.964;2022-12-07T07:30:29;8.30;63.90
18177;DHT22;9213;50.858;3.964;2022-12-07T07:32:56;8.30;63.70
18177;DHT22;9213;50.858;3.964;2022-12-07T07:35:23;8.30;63.60
18177;DHT22;9213;50.858;3.964;2022-12-07T07:37:50;8.30;63.60
18177;DHT22;9213;50.858;3.964;2022-12-07T07:40:17;8.30;63.60
18177;DHT22;9213;50.858;3.964;2022-12-07T07:42:48;8.30;63.60
18177;DHT22;9213;50.858;3.964;2022-12-07T07:45:16;8.30;63.70
18177;DHT22;9213;50.858;3.964;2022-12-07T07:47:43;8.30;63.60
18177;DHT22;9213;50.858;3.964;2022-12-07T07:50:10;8.40;63.60
18177;DHT22;9213;50.858;3.964;2022-12-07T07:52:37;8.40;63.50
18177;DHT22;9213;50.858;3.964;2022-12-07T07:55:05;8.50;63.60
18177;DHT22;9213;50.858;3.964;2022-12-07T07:57:34;8.50;63.50
18177;DHT22;9213;50.858;3.964;2022-12-07T08:00:04;8.50;63.50
18177;DHT22;9213;50.858;3.964;2022-12-07T08:02:31;8.50;63.50
18177;DHT22;9213;50.858;3.964;2022-12-07T08:04:58;8.50;63.50
18177;DHT22;9213;50.858;3.964;2022-12-07T08:07:25;8.50;63.60
18177;DHT22;9213;50.858;3.964;2022-12-07T08:09:53;8.50;63.60
18177;DHT22;9213;50.858;3.964;2022-12-07T08:12:20;8.40;63.50
18177;DHT22;9213;50.858;3.964;2022-12-07T08:14:47;8.40;63.60
18177;DHT22;9213;50.858;3.964;2022-12-07T08:17:15;8.40;63.70
18177;DHT22;9213;50.858;3.964;2022-12-07T08:19:42;8.40;63.90
18177;DHT22;9213;50.858;3.964;2022-12-07T08:22:09;8.50;64.10
18177;DHT22;9213;50.858;3.964;2022-12-07T08:24:36;8.60;64.20
18177;DHT22;9213;50.858;3.964;2022-12-07T08:27:03;8.70;64.20
18177;DHT22;9213;50.858;3.964;2022-12-07T08:29:30;8.80;64.00
18177;DHT22;9213;50.858;3.964;2022-12-07T08:31:57;8.90;63.90
18177;DHT22;9213;50.858;3.964;2022-12-07T08:34:27;9.00;63.70
18177;DHT22;9213;50.858;3.964;2022-12-07T08:36:54;9.10;63.70
18177;DHT22;9213;50.858;3.964;2022-12-07T08:39:21;9.20;63.60
18177;DHT22;9213;50.858;3.964;2022-12-07T08:41:48;9.20;63.30
18177;DHT22;9213;50.858;3.964;2022-12-07T08:44:15;9.30;63.20
18177;DHT22;9213;50.858;3.964;2022-12-07T08:46:44;9.30;63.10
18177;DHT22;9213;50.858;3.964;2022-12-07T08:49:15;9.30;63.00
18177;DHT22;9213;50.858;3.964;2022-12-07T08:51:44;9.30;63.00
18177;DHT22;9213;50.858;3.964;2022-12-07T08:54:14;9.30;63.00
18177;DHT22;9213;50.858;3.964;2022-12-07T08:56:42;9.30;62.90
18177;DHT22;9213;50.858;3.964;2022-12-07T08:59:09;9.40;62.80
18177;DHT22;9213;50.858;3.964;2022-12-07T09:01:37;9.40;62.70
18177;DHT22;9213;50.858;3.964;2022-12-07T09:04:04;9.50;62.70
18177;DHT22;9213;50.858;3.964;2022-12-07T09:06:31;9.50;62.50
18177;DHT22;9213;50.858;3.964;2022-12-07T09:09:00;9.50;62.50
18177;DHT22;9213;50.858;3.964;2022-12-07T09:11:28;9.50;62.50
18177;DHT22;9213;50.858;3.964;2022-12-07T09:13:55;9.50;62.30
18177;DHT22;9213;50.858;3.964;2022-12-07T09:16:22;9.50;62.20
18177;DHT22;9213;50.858;3.964;2022-12-07T09:18:49;9.50;62.30
18177;DHT22;9213;50.858;3.964;2022-12-07T09:21:16;9.50;62.40
18177;DHT22;9213;50.858;3.964;2022-12-07T09:23:43;9.50;62.60
18177;DHT22;9213;50.858;3.964;2022-12-07T09:26:11;9.60;63.00
18177;DHT22;9213;50.858;3.964;2022-12-07T09:28:38;9.80;62.80
18177;DHT22;9213;50.858;3.964;2022-12-07T09:31:05;10.00;62.40
18177;DHT22;9213;50.858;3.964;2022-12-07T09:33:32;10.20;61.90
18177;DHT22;9213;50.858;3.964;2022-12-07T09:35:59;10.30;61.60
18177;DHT22;9213;50.858;3.964;2022-12-07T09:38:26;10.40;62.10
18177;DHT22;9213;50.858;3.964;2022-12-07T09:40:55;10.60;61.30
18177;DHT22;9213;50.858;3.964;2022-12-07T09:43:25;10.70;60.70
18177;DHT22;9213;50.858;3.964;2022-12-07T09:45:54;10.80;60.00
18177;DHT22;9213;50.858;3.964;2022-12-07T09:48:24;10.80;59.60
18177;DHT22;9213;50.858;3.964;2022-12-07T09:50:54;10.80;59.60
18177;DHT22;9213;50.858;3.964;2022-12-07T09:53:25;10.70;59.50
18177;DHT22;9213;50.858;3.964;2022-12-07T09:55:53;10.70;59.60
18177;DHT22;9213;50.858;3.964;2022-12-07T09:58:24;10.60;59.70
18177;DHT22;9213;50.858;3.964;2022-12-07T10:00:55;10.60;60.30
18177;DHT22;9213;50.858;3.964;2022-12-07T10:03:23;10.70;60.90
18177;DHT22;9213;50.858;3.964;2022-12-07T10:05:51;10.90;60.50
18177;DHT22;9213;50.858;3.964;2022-12-07T10:08:19;11.10;59.90
18177;DHT22;9213;50.858;3.964;2022-12-07T10:10:50;11.20;59.30
18177;DHT22;9213;50.858;3.964;2022-12-07T10:13:20;11.20;59.10
18177;DHT22;9213;50.858;3.964;2022-12-07T10:15:50;11.30;59.30
18177;DHT22;9213;50.858;3.964;2022-12-07T10:18:28;11.40;59.50
18177;DHT22;9213;50.858;3.964;2022-12-07T10:21:10;11.60;59.40
18177;DHT22;9213;50.858;3.964;2022-12-07T10:23:40;11.80;59.00
18177;DHT22;9213;50.858;3.964;2022-12-07T10:26:26;11.80;58.30
18177;DHT22;9213;50.858;3.964;2022-12-07T10:28:53;11.80;58.30
18177;DHT22;9213;50.858;3.964;2022-12-07T10:31:22;11.80;58.30
18177;DHT22;9213;50.858;3.964;2022-12-07T10:33:53;11.80;59.10
18177;DHT22;9213;50.858;3.964;2022-12-07T10:36:23;11.70;58.40
18177;DHT22;9213;50.858;3.964;2022-12-07T10:38:52;11.60;58.20
18177;DHT22;9213;50.858;3.964;2022-12-07T10:41:20;11.50;58.40
18177;DHT22;9213;50.858;3.964;2022-12-07T10:43:48;11.30;58.60
18177;DHT22;9213;50.858;3.964;2022-12-07T10:46:45;11.20;58.90
18177;DHT22;9213;50.858;3.964;2022-12-07T10:49:41;11.10;59.50
18177;DHT22;9213;50.858;3.964;2022-12-07T10:52:21;11.00;59.80
18177;DHT22;9213;50.858;3.964;2022-12-07T10:55:03;10.90;60.00
18177;DHT22;9213;50.858;3.964;2022-12-07T10:57:43;10.90;60.70
18177;DHT22;9213;50.858;3.964;2022-12-07T11:00:17;10.90;61.00
18177;DHT22;9213;50.858;3.964;2022-12-07T11:03:08;10.90;61.20
18177;DHT22;9213;50.858;3.964;2022-12-07T11:05:47;11.00;61.30
18177;DHT22;9213;50.858;3.964;2022-12-07T11:08:23;11.00;61.20
18177;DHT22;9213;50.858;3.964;2022-12-07T11:10:57;11.00;61.40
18177;DHT22;9213;50.858;3.964;2022-12-07T11:13:31;11.10;61.50
18177;DHT22;9213;50.858;3.964;2022-12-07T11:16:19;11.20;61.40
18177;DHT22;9213;50.858;3.964;2022-12-07T11:18:56;11.30;61.40
18177;DHT22;9213;50.858;3.964;2022-12-07T11:21:31;11.30;61.00
18177;DHT22;9213;50.858;3.964;2022-12-07T11:24:04;11.30;61.00
18177;DHT22;9213;50.858;3.964;2022-12-07T11:26:46;11.30;61.10
18177;DHT22;9213;50.858;3.964;2022-12-07T11:29:26;11.40;61.20
18177;DHT22;9213;50.858;3.964;2022-12-07T11:32:02;11.40;60.90
18177;DHT22;9213;50.858;3.964;2022-12-07T11:34:38;11.50;61.00
18177;DHT22;9213;50.858;3.964;2022-12-07T11:37:12;11.50;60.90
18177;DHT22;9213;50.858;3.964;2022-12-07T11:39:46;11.60;60.70
18177;DHT22;9213;50.858;3.964;2022-12-07T11:42:16;11.70;60.70
18177;DHT22;9213;50.858;3.964;2022-12-07T11:44:50;11.80;60.60
18177;DHT22;9213;50.858;3.964;2022-12-07T11:47:23;11.90;60.70
18177;DHT22;9213;50.858;3.964;2022-12-07T11:49:55;12.00;60.30
18177;DHT22;9213;50.858;3.964;2022-12-07T11:52:32;12.10;59.80
18177;DHT22;9213;50.858;3.964;2022-12-07T11:55:00;12.20;59.40
18177;DHT22;9213;50.858;3.964;2022-12-07T11:57:35;12.20;58.90
18177;DHT22;9213;50.858;3.964;2022-12-07T12:00:09;12.20;58.50
18177;DHT22;9213;50.858;3.964;2022-12-07T12:02:43;12.20;58.50
18177;DHT22;9213;50.858;3.964;2022-12-07T12:05:15;12.10;58.30
18177;DHT22;9213;50.858;3.964;2022-12-07T12:07:45;12.00;58.50
18177;DHT22;9213;50.858;3.964;2022-12-07T12:10:20;11.90;58.80
18177;DHT22;9213;50.858;3.964;2022-12-07T12:16:01;11.80;59.20
18177;DHT22;9213;50.858;3.964;2022-12-07T12:18:47;11.80;59.20
18177;DHT22;9213;50.858;3.964;2022-12-07T12:21:17;11.80;59.40
18177;DHT22;9213;50.858;3.964;2022-12-07T12:23:49;11.80;59.30
18177;DHT22;9213;50.858;3.964;2022-12-07T12:26:19;11.80;59.50
18177;DHT22;9213;50.858;3.964;2022-12-07T12:28:53;11.80;59.40
18177;DHT22;9213;50.858;3.964;2022-12-07T12:31:37;11.90;59.20
18177;DHT22;9213;50.858;3.964;2022-12-07T12:34:32;12.00;59.20
18177;DHT22;9213;50.858;3.964;2022-12-07T12:36:59;12.00;59.20
18177;DHT22;9213;50.858;3.964;2022-12-07T12:39:28;12.00;58.80
18177;DHT22;9213;50.858;3.964;2022-12-07T12:41:59;12.00;58.80
18177;DHT22;9213;50.858;3.964;2022-12-07T12:45:19;12.00;58.90
18177;DHT22;9213;50.858;3.964;2022-12-07T12:47:57;12.20;59.20
18177;DHT22;9213;50.858;3.964;2022-12-07T12:50:26;12.20;58.50
18177;DHT22;9213;50.858;3.964;2022-12-07T12:52:58;12.10;58.30
18177;DHT22;9213;50.858;3.964;2022-12-07T12:56:00;12.10;58.30
18177;DHT22;9213;50.858;3.964;2022-12-07T12:58:35;12.20;58.60
18177;DHT22;9213;50.858;3.964;2022-12-07T13:01:40;12.20;58.20
18177;DHT22;9213;50.858;3.964;2022-12-07T13:04:31;12.30;58.50
18177;DHT22;9213;50.858;3.964;2022-12-07T13:07:02;12.30;58.40
18177;DHT22;9213;50.858;3.964;2022-12-07T13:09:32;12.20;58.00
18177;DHT22;9213;50.858;3.964;2022-12-07T13:12:03;12.20;58.10
18177;DHT22;9213;50.858;3.964;2022-12-07T13:14:57;12.30;58.10
18177;DHT22;9213;50.858;3.964;2022-12-07T13:20:43;12.20;57.80
18177;DHT22;9213;50.858;3.964;2022-12-07T13:23:12;12.10;57.70
18177;DHT22;9213;50.858;3.964;2022-12-07T13:25:56;12.00;57.60
18177;DHT22;9213;50.858;3.964;2022-12-07T13:28:33;12.00;57.80
18177;DHT22;9213;50.858;3.964;2022-12-07T13:31:20;11.90;57.80
18177;DHT22;9213;50.858;3.964;2022-12-07T13:33:49;11.90;58.10
18177;DHT22;9213;50.858;3.964;2022-12-07T13:36:22;11.90;58.00
18177;DHT22;9213;50.858;3.964;2022-12-07T13:38:52;11.90;58.10
18177;DHT22;9213;50.858;3.964;2022-12-07T13:41:20;11.90;58.00
18177;DHT22;9213;50.858;3.964;2022-12-07T13:44:02;11.90;57.80
18177;DHT22;9213;50.858;3.964;2022-12-07T13:46:44;11.90;57.90
18177;DHT22;9213;50.858;3.964;2022-12-07T13:49:18;11.90;57.90
18177;DHT22;9213;50.858;3.964;2022-12-07T13:51:45;11.90;57.60
18177;DHT22;9213;50.858;3.964;2022-12-07T13:54:13;11.90;57.50
18177;DHT22;9213;50.858;3.964;2022-12-07T13:56:41;11.90;57.30
18177;DHT22;9213;50.858;3.964;2022-12-07T13:59:14;11.90;57.30
18177;DHT22;9213;50.858;3.964;2022-12-07T14:01:42;11.90;57.30
18177;DHT22;9213;50.858;3.964;2022-12-07T14:04:19;11.90;57.50
18177;DHT22;9213;50.858;3.964;2022-12-07T14:06:50;11.90;57.60
18177;DHT22;9213;50.858;3.964;2022-12-07T14:09:19;11.90;57.40
18177;DHT22;9213;50.858;3.964;2022-12-07T14:11:49;11.90;57.30
18177;DHT22;9213;50.858;3.964;2022-12-07T14:14:20;12.00;57.10
18177;DHT22;9213;50.858;3.964;2022-12-07T14:17:00;12.00;57.00
18177;DHT22;9213;50.858;3.964;2022-12-07T14:19:46;12.00;56.90
18177;DHT22;9213;50.858;3.964;2022-12-07T14:22:31;12.00;56.80
18177;DHT22;9213;50.858;3.964;2022-12-07T14:25:01;12.00;56.70
18177;DHT22;9213;50.858;3.964;2022-12-07T14:27:32;11.90;56.40
18177;DHT22;9213;50.858;3.964;2022-12-07T14:30:04;11.80;56.60
18177;DHT22;9213;50.858;3.964;2022-12-07T14:32:36;11.80;56.70
18177;DHT22;9213;50.858;3.964;2022-12-07T14:35:10;11.80;56.90
18177;DHT22;9213;50.858;3.964;2022-12-07T14:37:39;11.90;57.00
18177;DHT22;9213;50.858;3.964;2022-12-07T14:40:07;11.80;56.80
18177;DHT22;9213;50.858;3.964;2022-12-07T14:42:34;11.90;56.80
18177;DHT22;9213;50.858;3.964;2022-12-07T14:45:03;11.80;56.70
18177;DHT22;9213;50.858;3.964;2022-12-07T14:47:30;11.90;56.70
18177;DHT22;9213;50.858;3.964;2022-12-07T14:49:57;11.90;56.70
18177;DHT22;9213;50.858;3.964;2022-12-07T14:52:27;11.90;56.50
18177;DHT22;9213;50.858;3.964;2022-12-07T14:54:55;11.90;56.60
18177;DHT22;9213;50.858;3.964;2022-12-07T14:57:23;11.90;56.50
18177;DHT22;9213;50.858;3.964;2022-12-07T14:59:50;11.90;57.10
18177;DHT22;9213;50.858;3.964;2022-12-07T15:02:18;11.80;56.40
18177;DHT22;9213;50.858;3.964;2022-12-07T15:04:45;11.80;56.50
18177;DHT22;9213;50.858;3.964;2022-12-07T15:07:16;11.70;56.60
18177;DHT22;9213;50.858;3.964;2022-12-07T15:09:45;11.70;56.60
18177;DHT22;9213;50.858;3.964;2022-12-07T15:12:11;11.70;56.70
18177;DHT22;9213;50.858;3.964;2022-12-07T15:14:38;11.70;56.90
18177;DHT22;9213;50.858;3.964;2022-12-07T15:17:05;11.70;56.90
18177;DHT22;9213;50.858;3.964;2022-12-07T15:19:33;11.70;56.90
18177;DHT22;9213;50.858;3.964;2022-12-07T15:22:00;11.70;56.90
18177;DHT22;9213;50.858;3.964;2022-12-07T15:24:27;11.70;56.90
18177;DHT22;9213;50.858;3.964;2022-12-07T15:26:54;11.60;56.70
18177;DHT22;9213;50.858;3.964;2022-12-07T15:29:21;11.60;56.80
18177;DHT22;9213;50.858;3.964;2022-12-07T15:31:49;11.60;56.80
18177;DHT22;9213;50.858;3.964;2022-12-07T15:34:16;11.60;56.80
18177;DHT22;9213;50.858;3.964;2022-12-07T15:36:44;11.50;56.90
18177;DHT22;9213;50.858;3.964;2022-12-07T15:39:11;11.50;57.00
18177;DHT22;9213;50.858;3.964;2022-12-07T15:41:38;11.50;57.10
18177;DHT22;9213;50.858;3.964;2022-12-07T15:44:05;11.40;57.10
18177;DHT22;9213;50.858;3.964;2022-12-07T15:46:49;11.40;57.20
18177;DHT22;9213;50.858;3.964;2022-12-07T15:49:18;11.40;57.20
18177;DHT22;9213;50.858;3.964;2022-12-07T15:51:46;11.30;57.30
18177;DHT22;9213;50.858;3.964;2022-12-07T15:54:17;11.30;57.40
18177;DHT22;9213;50.858;3.964;2022-12-07T15:56:44;11.20;57.40
18177;DHT22;9213;50.858;3.964;2022-12-07T15:59:11;11.10;57.40
18177;DHT22;9213;50.858;3.964;2022-12-07T16:01:38;11.10;57.60
18177;DHT22;9213;50.858;3.964;2022-12-07T16:04:05;11.10;57.70
18177;DHT22;9213;50.858;3.964;2022-12-07T16:06:32;11.10;57.80
18177;DHT22;9213;50.858;3.964;2022-12-07T16:09:01;11.00;57.80
18177;DHT22;9213;50.858;3.964;2022-12-07T16:11:28;11.00;57.80
18177;DHT22;9213;50.858;3.964;2022-12-07T16:13:55;11.00;57.80
18177;DHT22;9213;50.858;3.964;2022-12-07T16:16:22;11.00;57.80
18177;DHT22;9213;50.858;3.964;2022-12-07T16:18:50;10.90;57.80
18177;DHT22;9213;50.858;3.964;2022-12-07T16:21:17;10.80;57.70
18177;DHT22;9213;50.858;3.964;2022-12-07T16:23:44;10.80;57.80